sensor_id;sensor_type;location;lat;lon;timestamp;pressure;altitude;pressure_sealevel;temperature;humidity
29121;BME280;16191;49.548;8.658;2024-03-23T00:53:46;99531.50;;;12.06;100.00
29121;BME280;16191;49.548;8.658;2024-03-23T00:56:12;99528.16;;;12.18;100.00
29121;BME280;16191;49.548;8.658;2024-03-23T00:58:37;99522.25;;;12.14;100.00
29121;BME280;16191;49.548;8.658;2024-03-23T01:01:03;99523.47;;;12.09;100.00
29121;BME280;16191;49.548;8.658;2024-03-23T01:03:29;99520.47;;;12.15;100.00
29121;BME280;16191;49.548;8.658;2024-03-23T01:06:02;99508.91;;;12.19;100.00
29121;BME280;16191;49.548;8.658;2024-03-23T01:08:29;99513.78;;;12.25;100.00
29121;BME280;16191;49.548;8.658;2024-03-23T01:11:01;99504.34;;;12.22;100.00
29121;BME280;16191;49.548;8.658;2024-03-23T01:13:28;99497.44;;;12.21;100.00
29121;BME280;16191;49.548;8.658;2024-03-23T01:15:56;99497.16;;;12.26;100.00
29121;BME280;16191;49.548;8.658;2024-03-23T01:18:24;99501.38;;;12.28;100.00
29121;BME280;16191;49.548;8.658;2024-03-23T01:20:52;99478.59;;;12.30;100.00
29121;BME280;16191;49.548;8.658;2024-03-23T01:23:17;99480.28;;;12.31;100.00
29121;BME280;16191;49.548;8.658;2024-03-23T01:25:43;99486.97;;;12.35;100.00
29121;BME280;16191;49.548;8.658;2024-03-23T01:28:16;99477.44;;;12.34;100.00
29121;BME280;16191;49.548;8.658;2024-03-23T01:30:42;99484.56;;;12.32;100.00
29121;BME280;16191;49.548;8.658;2024-03-23T01:33:08;99477.19;;;12.39;100.00
29121;BME280;16191;49.548;8.658;2024-03-23T01:35:34;99471.50;;;12.47;100.00
29121;BME280;16191;49.548;8.658;2024-03-23T01:38:00;99474.28;;;12.44;100.00
29121;BME280;16191;49.548;8.658;2024-03-23T01:40:25;99466.34;;;12.45;100.00
29121;BME280;16191;49.548;8.658;2024-03-23T01:42:56;99467.66;;;12.52;100.00
29121;BME280;16191;49.548;8.658;2024-03-23T01:45:22;99463.06;;;12.56;100.00
29121;BME280;16191;49.548;8.658;2024-03-23T01:47:50;99461.09;;;12.59;100.00
29121;BME280;16191;49.548;8.658;2024-03-23T01:50:16;99461.00;;;12.61;100.00
29121;BME280;16191;49.548;8.658;2024-03-23T01:52:42;99453.81;;;12.64;100.00
29121;BME280;16191;49.548;8.658;2024-03-23T01:55:08;99445.41;;;12.74;100.00
29121;BME280;16191;49.548;8.658;2024-03-23T01:57:34;99446.34;;;12.73;100.00
29121;BME280;16191;49.548;8.658;2024-03-23T02:00:00;99450.72;;;12.72;100.00
29121;BME280;16191;49.548;8.658;2024-03-23T02:02:26;99439.84;;;12.78;100.00
29121;BME280;16191;49.548;8.658;2024-03-23T02:04:52;99438.72;;;12.82;100.00
29121;BME280;16191;49.548;8.658;2024-03-23T02:07:17;99440.50;;;12.82;100.00
29121;BME280;16191;49.548;8.658;2024-03-23T02:09:43;99438.72;;;12.82;100.00
29121;BME280;16191;49.548;8.658;2024-03-23T02:12:10;99443.31;;;12.79;100.00
29121;BME280;16191;49.548;8.658;2024-03-23T02:14:36;99448.47;;;12.80;100.00
29121;BME280;16191;49.548;8.658;2024-03-23T02:17:01;99432.13;;;12.77;100.00
29121;BME280;16191;49.548;8.658;2024-03-23T02:19:47;99425.13;;;12.77;100.00
29121;BME280;16191;49.548;8.658;2024-03-23T02:22:39;99429.69;;;12.74;100.00
29121;BME280;16191;49.548;8.658;2024-03-23T02:25:25;99428.00;;;12.73;100.00
29121;BME280;16191;49.548;8.658;2024-03-23T02:28:11;99444.66;;;12.72;100.00
29121;BME280;16191;49.548;8.658;2024-03-23T02:30:57;99439.69;;;12.67;100.00
29121;BME280;16191;49.548;8.658;2024-03-23T02:33:44;99439.13;;;12.62;100.00
29121;BME280;16191;49.548;8.658;2024-03-23T02:36:09;99434.09;;;12.59;100.00
29121;BME280;16191;49.548;8.658;2024-03-23T02:38:35;99437.00;;;12.54;100.00
29121;BME280;16191;49.548;8.658;2024-03-23T02:41:04;99433.84;;;12.49;100.00
29121;BME280;16191;49.548;8.658;2024-03-23T02:43:30;99437.00;;;12.40;100.00
29121;BME280;16191;49.548;8.658;2024-03-23T02:45:56;99432.34;;;12.31;100.00
29121;BME280;16191;49.548;8.658;2024-03-23T02:48:21;99436.91;;;12.27;100.00
29121;BME280;16191;49.548;8.658;2024-03-23T02:50:47;99435.41;;;12.23;100.00
29121;BME280;16191;49.548;8.658;2024-03-23T02:53:13;99438.97;;;12.36;100.00
29121;BME280;16191;49.548;8.658;2024-03-23T02:55:39;99434.03;;;12.32;100.00
29121;BME280;16191;49.548;8.658;2024-03-23T02:58:05;99440.47;;;12.26;100.00
29121;BME280;16191;49.548;8.658;2024-03-23T03:00:30;99439.44;;;12.29;100.00
29121;BME280;16191;49.548;8.658;2024-03-23T03:02:56;99437.38;;;12.20;100.00
29121;BME280;16191;49.548;8.658;2024-03-23T03:05:22;99430.66;;;12.30;100.00
29121;BME280;16191;49.548;8.658;2024-03-23T03:07:48;99432.88;;;12.22;100.00
29121;BME280;16191;49.548;8.658;2024-03-23T03:10:14;99430.63;;;12.16;100.00
29121;BME280;16191;49.548;8.658;2024-03-23T03:12:40;99434.56;;;12.09;100.00
29121;BME280;16191;49.548;8.658;2024-03-23T03:15:06;99435.09;;;11.99;100.00
29121;BME280;16191;49.548;8.658;2024-03-23T03:17:32;99441.53;;;11.94;100.00
29121;BME280;16191;49.548;8.658;2024-03-23T03:19:57;99448.34;;;11.96;100.00
29121;BME280;16191;49.548;8.658;2024-03-23T03:22:23;99444.91;;;11.96;100.00
29121;BME280;16191;49.548;8.658;2024-03-23T03:24:49;99436.03;;;11.98;100.00
29121;BME280;16191;49.548;8.658;2024-03-23T03:27:15;99433.50;;;11.97;100.00
29121;BME280;16191;49.548;8.658;2024-03-23T03:29:41;99417.72;;;11.98;100.00
29121;BME280;16191;49.548;8.658;2024-03-23T03:32:06;99409.78;;;11.86;100.00
29121;BME280;16191;49.548;8.658;2024-03-23T03:34:34;99394.47;;;11.94;100.00
29121;BME280;16191;49.548;8.658;2024-03-23T03:37:00;99411.09;;;11.93;100.00
29121;BME280;16191;49.548;8.658;2024-03-23T03:39:26;99420.91;;;11.89;100.00
29121;BME280;16191;49.548;8.658;2024-03-23T03:41:52;99408.88;;;11.87;100.00
29121;BME280;16191;49.548;8.658;2024-03-23T03:44:17;99424.81;;;11.82;100.00
29121;BME280;16191;49.548;8.658;2024-03-23T03:46:43;99424.28;;;11.76;100.00
29121;BME280;16191;49.548;8.658;2024-03-23T03:49:09;99420.44;;;11.83;100.00
29121;BME280;16191;49.548;8.658;2024-03-23T03:51:35;99409.38;;;11.78;100.00
29121;BME280;16191;49.548;8.658;2024-03-23T03:54:00;99412.94;;;11.77;100.00
29121;BME280;16191;49.548;8.658;2024-03-23T03:56:26;99411.03;;;11.64;100.00
29121;BME280;16191;49.548;8.658;2024-03-23T03:58:53;99399.03;;;11.76;100.00
29121;BME280;16191;49.548;8.658;2024-03-23T04:01:19;99392.59;;;11.82;100.00
29121;BME280;16191;49.548;8.658;2024-03-23T04:03:45;99406.59;;;11.81;100.00
29121;BME280;16191;49.548;8.658;2024-03-23T04:06:12;99413.38;;;11.69;100.00
29121;BME280;16191;49.548;8.658;2024-03-23T04:08:38;99404.13;;;11.63;100.00
29121;BME280;16191;49.548;8.658;2024-03-23T04:11:03;99402.44;;;11.62;100.00
29121;BME280;16191;49.548;8.658;2024-03-23T04:13:30;99402.34;;;11.64;100.00
29121;BME280;16191;49.548;8.658;2024-03-23T04:15:56;99393.34;;;11.84;100.00
29121;BME280;16191;49.548;8.658;2024-03-23T04:18:22;99378.44;;;11.86;100.00
29121;BME280;16191;49.548;8.658;2024-03-23T04:20:48;99380.13;;;11.71;100.00
29121;BME280;16191;49.548;8.658;2024-03-23T04:23:14;99368.38;;;11.64;100.00
29121;BME280;16191;49.548;8.658;2024-03-23T04:25:40;99372.28;;;11.71;100.00
29121;BME280;16191;49.548;8.658;2024-03-23T04:28:06;99383.28;;;11.62;100.00
29121;BME280;16191;49.548;8.658;2024-03-23T04:30:32;99373.88;;;11.59;100.00
29121;BME280;16191;49.548;8.658;2024-03-23T04:32:58;99380.94;;;11.57;100.00
29121;BME280;16191;49.548;8.658;2024-03-23T04:35:27;99383.34;;;11.46;100.00
29121;BME280;16191;49.548;8.658;2024-03-23T04:37:55;99384.56;;;11.55;100.00
29121;BME280;16191;49.548;8.658;2024-03-23T04:40:21;99400.72;;;11.47;100.00
29121;BME280;16191;49.548;8.658;2024-03-23T04:42:47;99391.28;;;11.45;100.00
29121;BME280;16191;49.548;8.658;2024-03-23T04:45:14;99392.75;;;11.49;100.00
29121;BME280;16191;49.548;8.658;2024-03-23T04:47:40;99391.91;;;11.48;100.00
29121;BME280;16191;49.548;8.658;2024-03-23T04:50:06;99393.91;;;11.59;100.00
29121;BME280;16191;49.548;8.658;2024-03-23T04:52:31;99397.56;;;11.56;100.00
29121;BME280;16191;49.548;8.658;2024-03-23T04:54:57;99407.84;;;11.59;100.00
29121;BME280;16191;49.548;8.658;2024-03-23T04:57:23;99417.94;;;11.65;100.00
29121;BME280;16191;49.548;8.658;2024-03-23T04:59:49;99409.91;;;11.68;100.00
29121;BME280;16191;49.548;8.658;2024-03-23T05:02:14;99407.41;;;11.67;100.00
29121;BME280;16191;49.548;8.658;2024-03-23T05:04:40;99413.72;;;11.63;100.00
29121;BME280;16191;49.548;8.658;2024-03-23T05:07:06;99411.94;;;11.63;100.00
29121;BME280;16191;49.548;8.658;2024-03-23T05:09:32;99412.13;;;11.60;100.00
29121;BME280;16191;49.548;8.658;2024-03-23T05:11:59;99414.25;;;11.54;100.00
29121;BME280;16191;49.548;8.658;2024-03-23T05:14:26;99424.94;;;11.49;100.00
29121;BME280;16191;49.548;8.658;2024-03-23T05:16:53;99424.47;;;11.43;100.00
29121;BME280;16191;49.548;8.658;2024-03-23T05:19:19;99424.25;;;11.31;100.00
29121;BME280;16191;49.548;8.658;2024-03-23T05:21:45;99439.25;;;11.28;100.00
29121;BME280;16191;49.548;8.658;2024-03-23T05:24:11;99470.84;;;11.23;100.00
29121;BME280;16191;49.548;8.658;2024-03-23T05:26:38;99501.06;;;10.80;100.00
29121;BME280;16191;49.548;8.658;2024-03-23T05:29:03;99526.66;;;10.23;100.00
29121;BME280;16191;49.548;8.658;2024-03-23T05:31:31;99523.94;;;10.08;100.00
29121;BME280;16191;49.548;8.658;2024-03-23T05:33:57;99517.25;;;9.50;100.00
29121;BME280;16191;49.548;8.658;2024-03-23T05:36:23;99530.72;;;9.58;100.00
29121;BME280;16191;49.548;8.658;2024-03-23T05:38:51;99541.41;;;9.71;100.00
29121;BME280;16191;49.548;8.658;2024-03-23T05:41:17;99540.72;;;9.85;100.00
29121;BME280;16191;49.548;8.658;2024-03-23T05:43:43;99539.31;;;9.60;100.00
29121;BME280;16191;49.548;8.658;2024-03-23T05:46:08;99538.16;;;9.30;100.00
29121;BME280;16191;49.548;8.658;2024-03-23T05:48:34;99544.06;;;9.34;100.00
29121;BME280;16191;49.548;8.658;2024-03-23T05:51:00;99551.50;;;9.41;100.00
29121;BME280;16191;49.548;8.658;2024-03-23T05:53:26;99566.19;;;9.06;100.00
29121;BME280;16191;49.548;8.658;2024-03-23T05:56:01;99570.09;;;9.15;100.00
29121;BME280;16191;49.548;8.658;2024-03-23T05:58:29;99584.19;;;9.30;100.00
29121;BME280;16191;49.548;8.658;2024-03-23T06:00:59;99597.81;;;9.16;100.00
29121;BME280;16191;49.548;8.658;2024-03-23T06:03:29;99603.53;;;9.05;100.00
29121;BME280;16191;49.548;8.658;2024-03-23T06:05:55;99615.16;;;8.97;100.00
29121;BME280;16191;49.548;8.658;2024-03-23T06:08:22;99631.03;;;8.90;100.00
29121;BME280;16191;49.548;8.658;2024-03-23T06:10:48;99641.78;;;9.03;100.00
29121;BME280;16191;49.548;8.658;2024-03-23T06:13:14;99648.34;;;8.91;100.00
29121;BME280;16191;49.548;8.658;2024-03-23T06:15:42;99648.28;;;8.93;100.00
29121;BME280;16191;49.548;8.658;2024-03-23T06:18:08;99654.25;;;8.95;100.00
29121;BME280;16191;49.548;8.658;2024-03-23T06:20:34;99654.53;;;8.89;100.00
29121;BME280;16191;49.548;8.658;2024-03-23T06:23:03;99646.72;;;8.89;100.00
29121;BME280;16191;49.548;8.658;2024-03-23T06:25:29;99674.50;;;8.88;100.00
29121;BME280;16191;49.548;8.658;2024-03-23T06:27:55;99690.88;;;8.70;100.00
29121;BME280;16191;49.548;8.658;2024-03-23T06:30:21;99688.88;;;8.56;100.00
29121;BME280;16191;49.548;8.658;2024-03-23T06:32:47;99693.38;;;8.73;100.00
29121;BME280;16191;49.548;8.658;2024-03-23T06:35:13;99691.41;;;8.78;100.00
29121;BME280;16191;49.548;8.658;2024-03-23T06:37:38;99683.88;;;8.72;100.00
29121;BME280;16191;49.548;8.658;2024-03-23T06:40:08;99684.13;;;8.66;100.00
29121;BME280;16191;49.548;8.658;2024-03-23T06:42:36;99695.59;;;8.82;100.00
29121;BME280;16191;49.548;8.658;2024-03-23T06:45:03;99692.81;;;8.45;100.00
29121;BME280;16191;49.548;8.658;2024-03-23T06:47:30;99700.91;;;8.59;100.00
29121;BME280;16191;49.548;8.658;2024-03-23T06:49:56;99692.00;;;8.65;100.00
29121;BME280;16191;49.548;8.658;2024-03-23T06:52:22;99712.09;;;8.61;100.00
29121;BME280;16191;49.548;8.658;2024-03-23T06:54:48;99709.00;;;8.51;100.00
29121;BME280;16191;49.548;8.658;2024-03-23T06:57:14;99727.41;;;8.47;100.00
29121;BME280;16191;49.548;8.658;2024-03-23T06:59:41;99746.31;;;8.50;100.00
29121;BME280;16191;49.548;8.658;2024-03-23T07:02:08;99751.28;;;8.35;100.00
29121;BME280;16191;49.548;8.658;2024-03-23T07:04:35;99746.25;;;8.52;100.00
29121;BME280;16191;49.548;8.658;2024-03-23T07:07:01;99762.28;;;8.63;100.00
29121;BME280;16191;49.548;8.658;2024-03-23T07:09:28;99775.09;;;8.46;100.00
29121;BME280;16191;49.548;8.658;2024-03-23T07:11:55;99762.03;;;8.47;100.00
29121;BME280;16191;49.548;8.658;2024-03-23T07:14:22;99771.97;;;8.59;100.00
29121;BME280;16191;49.548;8.658;2024-03-23T07:16:48;99794.28;;;8.43;100.00
29121;BME280;16191;49.548;8.658;2024-03-23T07:19:15;99802.28;;;8.39;100.00
29121;BME280;16191;49.548;8.658;2024-03-23T07:21:44;99802.94;;;8.44;100.00
29121;BME280;16191;49.548;8.658;2024-03-23T07:24:11;99798.56;;;8.66;100.00
29121;BME280;16191;49.548;8.658;2024-03-23T07:26:37;99812.50;;;8.43;100.00
29121;BME280;16191;49.548;8.658;2024-03-23T07:29:06;99819.88;;;8.31;100.00
29121;BME280;16191;49.548;8.658;2024-03-23T07:31:32;99817.25;;;8.54;100.00
29121;BME280;16191;49.548;8.658;2024-03-23T07:33:58;99832.44;;;8.43;100.00
29121;BME280;16191;49.548;8.658;2024-03-23T07:36:24;99845.97;;;8.51;100.00
29121;BME280;16191;49.548;8.658;2024-03-23T07:38:50;99849.38;;;8.53;100.00
29121;BME280;16191;49.548;8.658;2024-03-23T07:41:19;99861.81;;;8.45;100.00
29121;BME280;16191;49.548;8.658;2024-03-23T07:43:46;99858.44;;;8.43;100.00
29121;BME280;16191;49.548;8.658;2024-03-23T07:46:15;99870.81;;;8.36;100.00
29121;BME280;16191;49.548;8.658;2024-03-23T07:48:41;99872.63;;;8.34;100.00
29121;BME280;16191;49.548;8.658;2024-03-23T07:51:15;99872.94;;;8.25;100.00
29121;BME280;16191;49.548;8.658;2024-03-23T07:53:43;99888.19;;;8.11;100.00
29121;BME280;16191;49.548;8.658;2024-03-23T07:56:09;99898.75;;;8.06;100.00
29121;BME280;16191;49.548;8.658;2024-03-23T07:58:36;99907.81;;;8.19;100.00
29121;BME280;16191;49.548;8.658;2024-03-23T08:01:11;99900.72;;;8.23;100.00
29121;BME280;16191;49.548;8.658;2024-03-23T08:03:37;99908.88;;;8.39;100.00
29121;BME280;16191;49.548;8.658;2024-03-23T08:08:36;99922.03;;;8.34;100.00
29121;BME280;16191;49.548;8.658;2024-03-23T08:11:03;99922.09;;;8.31;100.00
29121;BME280;16191;49.548;8.658;2024-03-23T08:13:32;99934.00;;;8.62;100.00
29121;BME280;16191;49.548;8.658;2024-03-23T08:15:59;99925.19;;;8.42;100.00
29121;BME280;16191;49.548;8.658;2024-03-23T08:18:25;99929.50;;;8.43;100.00
29121;BME280;16191;49.548;8.658;2024-03-23T08:21:01;99934.13;;;8.35;100.00
29121;BME280;16191;49.548;8.658;2024-03-23T08:23:32;99947.25;;;8.31;100.00
29121;BME280;16191;49.548;8.658;2024-03-23T08:26:06;99947.91;;;8.12;100.00
29121;BME280;16191;49.548;8.658;2024-03-23T08:28:32;99967.31;;;8.27;100.00
29121;BME280;16191;49.548;8.658;2024-03-23T08:31:01;99956.34;;;8.19;100.00
29121;BME280;16191;49.548;8.658;2024-03-23T08:33:28;99955.72;;;8.37;100.00
29121;BME280;16191;49.548;8.658;2024-03-23T08:36:02;99962.03;;;8.53;100.00
29121;BME280;16191;49.548;8.658;2024-03-23T08:38:28;99966.84;;;8.64;100.00
29121;BME280;16191;49.548;8.658;2024-03-23T08:41:05;99967.19;;;8.78;100.00
29121;BME280;16191;49.548;8.658;2024-03-23T08:43:32;99963.03;;;8.96;100.00
29121;BME280;16191;49.548;8.658;2024-03-23T08:46:09;99964.34;;;8.84;100.00
29121;BME280;16191;49.548;8.658;2024-03-23T08:48:38;99963.84;;;8.75;100.00
29121;BME280;16191;49.548;8.658;2024-03-23T08:51:05;99962.28;;;8.92;100.00
29121;BME280;16191;49.548;8.658;2024-03-23T08:53:32;99954.31;;;9.19;100.00
29121;BME280;16191;49.548;8.658;2024-03-23T08:55:59;99957.13;;;9.77;100.00
29121;BME280;16191;49.548;8.658;2024-03-23T08:58:27;99961.97;;;9.86;100.00
29121;BME280;16191;49.548;8.658;2024-03-23T09:00:54;99967.25;;;9.42;100.00
29121;BME280;16191;49.548;8.658;2024-03-23T09:03:24;99973.19;;;9.46;100.00
29121;BME280;16191;49.548;8.658;2024-03-23T09:05:53;99974.16;;;9.00;100.00
29121;BME280;16191;49.548;8.658;2024-03-23T09:08:20;99987.19;;;9.21;100.00
29121;BME280;16191;49.548;8.658;2024-03-23T09:10:47;99980.50;;;9.36;100.00
29121;BME280;16191;49.548;8.658;2024-03-23T09:13:13;99986.41;;;9.41;100.00
29121;BME280;16191;49.548;8.658;2024-03-23T09:15:46;99984.34;;;9.49;100.00
29121;BME280;16191;49.548;8.658;2024-03-23T09:18:12;99986.13;;;9.69;100.00
29121;BME280;16191;49.548;8.658;2024-03-23T09:20:38;99993.13;;;9.47;100.00
29121;BME280;16191;49.548;8.658;2024-03-23T09:23:04;100001.28;;;9.59;100.00
29121;BME280;16191;49.548;8.658;2024-03-23T09:25:29;99999.41;;;9.63;100.00
29121;BME280;16191;49.548;8.658;2024-03-23T09:27:55;99993.19;;;9.45;100.00
29121;BME280;16191;49.548;8.658;2024-03-23T09:30:21;99984.63;;;9.84;100.00
29121;BME280;16191;49.548;8.658;2024-03-23T09:32:48;99981.59;;;9.94;100.00
29121;BME280;16191;49.548;8.658;2024-03-23T09:35:14;99978.97;;;10.15;100.00
29121;BME280;16191;49.548;8.658;2024-03-23T09:37:39;99983.09;;;10.20;100.00
29121;BME280;16191;49.548;8.658;2024-03-23T09:40:09;99985.66;;;9.59;100.00
29121;BME280;16191;49.548;8.658;2024-03-23T09:42:35;99980.50;;;9.58;100.00
29121;BME280;16191;49.548;8.658;2024-03-23T09:45:01;99982.63;;;9.70;100.00
29121;BME280;16191;49.548;8.658;2024-03-23T09:47:27;99985.47;;;9.64;100.00
29121;BME280;16191;49.548;8.658;2024-03-23T09:49:53;99974.91;;;9.67;100.00
29121;BME280;16191;49.548;8.658;2024-03-23T09:52:20;99981.81;;;9.68;100.00
29121;BME280;16191;49.548;8.658;2024-03-23T09:54:45;99980.97;;;9.68;100.00
29121;BME280;16191;49.548;8.658;2024-03-23T09:57:11;99981.66;;;9.73;100.00
29121;BME280;16191;49.548;8.658;2024-03-23T09:59:37;99972.50;;;9.83;100.00
29121;BME280;16191;49.548;8.658;2024-03-23T10:02:02;99965.84;;;9.55;100.00
29121;BME280;16191;49.548;8.658;2024-03-23T10:04:39;99963.84;;;9.62;100.00
29121;BME280;16191;49.548;8.658;2024-03-23T10:07:15;99964.16;;;9.75;100.00
29121;BME280;16191;49.548;8.658;2024-03-23T10:09:45;99962.94;;;10.04;100.00
29121;BME280;16191;49.548;8.658;2024-03-23T10:12:12;99967.56;;;10.17;100.00
29121;BME280;16191;49.548;8.658;2024-03-23T10:14:42;99952.13;;;9.92;100.00
29121;BME280;16191;49.548;8.658;2024-03-23T10:17:17;99959.47;;;9.83;100.00
29121;BME280;16191;49.548;8.658;2024-03-23T10:19:45;99951.00;;;9.78;98.38
29121;BME280;16191;49.548;8.658;2024-03-23T10:22:18;99954.59;;;9.75;99.52
29121;BME280;16191;49.548;8.658;2024-03-23T10:24:44;99954.47;;;9.98;98.31
29121;BME280;16191;49.548;8.658;2024-03-23T10:27:09;99957.28;;;10.14;97.34
29121;BME280;16191;49.548;8.658;2024-03-23T10:29:35;99960.00;;;10.11;100.00
29121;BME280;16191;49.548;8.658;2024-03-23T10:32:11;99949.97;;;10.22;87.56
29121;BME280;16191;49.548;8.658;2024-03-23T10:34:38;99950.22;;;10.16;85.84
29121;BME280;16191;49.548;8.658;2024-03-23T10:37:05;99954.94;;;10.28;88.81
29121;BME280;16191;49.548;8.658;2024-03-23T10:39:32;99964.69;;;10.23;85.40
29121;BME280;16191;49.548;8.658;2024-03-23T10:42:03;99962.88;;;10.05;85.77
29121;BME280;16191;49.548;8.658;2024-03-23T10:44:30;99969.19;;;10.20;81.18
29121;BME280;16191;49.548;8.658;2024-03-23T10:47:00;99965.09;;;10.14;73.74
29121;BME280;16191;49.548;8.658;2024-03-23T10:49:27;99952.59;;;10.22;73.99
29121;BME280;16191;49.548;8.658;2024-03-23T10:51:56;99963.34;;;10.35;77.45
29121;BME280;16191;49.548;8.658;2024-03-23T10:54:24;99953.88;;;10.12;71.80
29121;BME280;16191;49.548;8.658;2024-03-23T10:56:57;99961.97;;;10.06;69.90
29121;BME280;16191;49.548;8.658;2024-03-23T10:59:25;99952.91;;;9.74;66.52
29121;BME280;16191;49.548;8.658;2024-03-23T11:01:59;99959.28;;;9.87;67.16
29121;BME280;16191;49.548;8.658;2024-03-23T11:04:36;99966.94;;;9.92;66.01
29121;BME280;16191;49.548;8.658;2024-03-23T11:09:50;99955.50;;;10.15;63.24
29121;BME280;16191;49.548;8.658;2024-03-23T11:14:53;99950.38;;;10.52;61.05
29121;BME280;16191;49.548;8.658;2024-03-23T11:17:23;99943.13;;;10.78;62.05
29121;BME280;16191;49.548;8.658;2024-03-23T11:25:21;99952.34;;;10.85;63.38
29121;BME280;16191;49.548;8.658;2024-03-23T11:27:49;99979.94;;;10.90;63.36
29121;BME280;16191;49.548;8.658;2024-03-23T11:30:18;99999.84;;;10.15;83.68
29121;BME280;16191;49.548;8.658;2024-03-23T11:32:46;99995.69;;;9.69;100.00
29121;BME280;16191;49.548;8.658;2024-03-23T11:35:35;99995.13;;;9.40;100.00
29121;BME280;16191;49.548;8.658;2024-03-23T11:40:53;99971.88;;;9.56;100.00
29121;BME280;16191;49.548;8.658;2024-03-23T11:43:19;99977.06;;;9.14;100.00
29121;BME280;16191;49.548;8.658;2024-03-23T11:45:50;99974.28;;;9.18;100.00
29121;BME280;16191;49.548;8.658;2024-03-23T11:48:23;99999.34;;;9.43;100.00
29121;BME280;16191;49.548;8.658;2024-03-23T11:50:57;100001.00;;;9.45;100.00
29121;BME280;16191;49.548;8.658;2024-03-23T11:53:25;100000.72;;;8.86;100.00
29121;BME280;16191;49.548;8.658;2024-03-23T11:55:58;100014.97;;;8.76;100.00
29121;BME280;16191;49.548;8.658;2024-03-23T11:58:25;100022.34;;;8.65;100.00
29121;BME280;16191;49.548;8.658;2024-03-23T12:00:53;100027.84;;;8.55;100.00
29121;BME280;16191;49.548;8.658;2024-03-23T12:03:19;100042.72;;;8.75;100.00
29121;BME280;16191;49.548;8.658;2024-03-23T12:05:52;100044.72;;;8.92;100.00
29121;BME280;16191;49.548;8.658;2024-03-23T12:08:25;100049.72;;;8.50;100.00
29121;BME280;16191;49.548;8.658;2024-03-23T12:11:13;100034.47;;;8.14;100.00
29121;BME280;16191;49.548;8.658;2024-03-23T12:13:41;100021.81;;;8.78;100.00
29121;BME280;16191;49.548;8.658;2024-03-23T12:16:17;100004.91;;;9.12;100.00
29121;BME280;16191;49.548;8.658;2024-03-23T12:18:47;99990.69;;;8.99;100.00
29121;BME280;16191;49.548;8.658;2024-03-23T12:21:15;99988.66;;;9.28;100.00
29121;BME280;16191;49.548;8.658;2024-03-23T12:23:41;99982.53;;;9.51;100.00
29121;BME280;16191;49.548;8.658;2024-03-23T12:26:08;99981.00;;;9.46;100.00
29121;BME280;16191;49.548;8.658;2024-03-23T12:28:34;99975.84;;;9.44;100.00
29121;BME280;16191;49.548;8.658;2024-03-23T12:31:00;99971.38;;;9.48;100.00
29121;BME280;16191;49.548;8.658;2024-03-23T12:33:25;99975.47;;;9.53;100.00
29121;BME280;16191;49.548;8.658;2024-03-23T12:35:51;99971.72;;;9.60;100.00
29121;BME280;16191;49.548;8.658;2024-03-23T12:38:17;99970.25;;;9.53;100.00
29121;BME280;16191;49.548;8.658;2024-03-23T12:40:47;99979.72;;;9.56;100.00
29121;BME280;16191;49.548;8.658;2024-03-23T12:43:15;99987.19;;;9.43;100.00
29121;BME280;16191;49.548;8.658;2024-03-23T12:45:46;99990.03;;;9.37;100.00
29121;BME280;16191;49.548;8.658;2024-03-23T12:48:12;99993.41;;;8.96;100.00
29121;BME280;16191;49.548;8.658;2024-03-23T12:50:37;99982.66;;;9.05;100.00
29121;BME280;16191;49.548;8.658;2024-03-23T12:53:03;99983.34;;;8.86;100.00
29121;BME280;16191;49.548;8.658;2024-03-23T12:55:29;99976.78;;;8.76;100.00
29121;BME280;16191;49.548;8.658;2024-03-23T12:57:55;99980.00;;;8.36;100.00
29121;BME280;16191;49.548;8.658;2024-03-23T13:00:21;99968.88;;;8.33;100.00
29121;BME280;16191;49.548;8.658;2024-03-23T13:02:47;99974.13;;;8.78;100.00
29121;BME280;16191;49.548;8.658;2024-03-23T13:05:13;99977.53;;;8.56;100.00
29121;BME280;16191;49.548;8.658;2024-03-23T13:07:39;99970.00;;;8.49;100.00
29121;BME280;16191;49.548;8.658;2024-03-23T13:10:05;99972.09;;;8.39;100.00
29121;BME280;16191;49.548;8.658;2024-03-23T13:12:32;99991.84;;;8.20;100.00
29121;BME280;16191;49.548;8.658;2024-03-23T13:14:59;100005.97;;;7.86;100.00
29121;BME280;16191;49.548;8.658;2024-03-23T13:17:26;100000.81;;;7.58;100.00
29121;BME280;16191;49.548;8.658;2024-03-23T13:19:55;100004.44;;;7.54;100.00
29121;BME280;16191;49.548;8.658;2024-03-23T13:22:21;100001.72;;;7.31;100.00
29121;BME280;16191;49.548;8.658;2024-03-23T13:24:47;99984.31;;;7.35;100.00
29121;BME280;16191;49.548;8.658;2024-03-23T13:27:13;99994.94;;;7.27;100.00
29121;BME280;16191;49.548;8.658;2024-03-23T13:29:39;99990.63;;;7.26;100.00
29121;BME280;16191;49.548;8.658;2024-03-23T13:32:05;99976.56;;;7.33;100.00
29121;BME280;16191;49.548;8.658;2024-03-23T13:34:31;99981.69;;;7.08;100.00
29121;BME280;16191;49.548;8.658;2024-03-23T13:36:58;99992.25;;;7.02;100.00
29121;BME280;16191;49.548;8.658;2024-03-23T13:39:25;99984.81;;;7.72;100.00
29121;BME280;16191;49.548;8.658;2024-03-23T13:41:53;99980.28;;;7.79;100.00
29121;BME280;16191;49.548;8.658;2024-03-23T13:44:20;99985.31;;;7.57;100.00
29121;BME280;16191;49.548;8.658;2024-03-23T13:46:46;99988.50;;;7.65;100.00
29121;BME280;16191;49.548;8.658;2024-03-23T13:49:29;99979.72;;;7.69;100.00
29121;BME280;16191;49.548;8.658;2024-03-23T13:51:56;99978.56;;;7.78;100.00
29121;BME280;16191;49.548;8.658;2024-03-23T13:54:24;99971.94;;;8.19;100.00
29121;BME280;16191;49.548;8.658;2024-03-23T13:56:50;99983.13;;;7.96;100.00
29121;BME280;16191;49.548;8.658;2024-03-23T13:59:16;99978.25;;;7.87;100.00
29121;BME280;16191;49.548;8.658;2024-03-23T14:01:46;99981.38;;;7.72;100.00
29121;BME280;16191;49.548;8.658;2024-03-23T14:04:12;99970.59;;;8.07;100.00
29121;BME280;16191;49.548;8.658;2024-03-23T14:06:39;99973.06;;;8.60;100.00